createdAt,value
2019-03-23T00:02:13.259Z,10.00
2019-03-23T00:04:42.104Z,10.00
2019-03-23T00:07:10.864Z,9.90
2019-03-23T00:09:39.582Z,9.90
2019-03-23T00:12:08.439Z,9.90
2019-03-23T00:14:37.183Z,9.90
2019-03-23T00:17:06.034Z,9.80
2019-03-23T00:19:34.849Z,9.70
2019-03-23T00:22:03.859Z,9.70
2019-03-23T00:24:32.576Z,9.70
2019-03-23T00:27:01.312Z,9.70
2019-03-23T00:29:30.054Z,9.70
2019-03-23T00:31:58.766Z,9.60
2019-03-23T00:34:27.718Z,9.60
2019-03-23T00:36:56.500Z,9.60
2019-03-23T00:39:25.314Z,9.50
2019-03-23T00:41:54.110Z,9.50
2019-03-23T00:44:22.867Z,9.50
2019-03-23T00:46:51.651Z,9.40
2019-03-23T00:49:20.390Z,9.30
2019-03-23T00:51:49.228Z,9.30
2019-03-23T00:54:18.043Z,9.30
2019-03-23T00:56:46.762Z,9.30
2019-03-23T00:59:15.508Z,9.20
2019-03-23T01:01:44.307Z,9.20
2019-03-23T01:04:13.048Z,9.10
2019-03-23T01:06:51.542Z,9.00
2019-03-23T01:09:12.345Z,9.00
2019-03-23T01:11:41.125Z,8.90
2019-03-23T01:14:09.886Z,8.80
2019-03-23T01:16:38.622Z,8.70
2019-03-23T01:19:07.528Z,8.70
2019-03-23T01:21:36.356Z,8.60
2019-03-23T01:24:05.177Z,8.50
2019-03-23T01:26:33.902Z,8.20
2019-03-23T01:29:02.643Z,8.10
2019-03-23T01:31:31.374Z,8.10
2019-03-23T01:34:00.110Z,8.10
2019-03-23T01:36:28.932Z,8.10
2019-03-23T01:38:57.639Z,8.10
2019-03-23T01:41:26.379Z,8.00
2019-03-23T01:43:55.121Z,7.90
2019-03-23T01:46:24.004Z,7.90
2019-03-23T01:48:52.753Z,7.90
2019-03-23T01:51:21.550Z,7.90
2019-03-23T01:53:50.350Z,7.90
2019-03-23T01:56:19.153Z,7.90
2019-03-23T01:58:47.957Z,7.90
2019-03-23T02:01:16.704Z,8.00
2019-03-23T02:03:45.487Z,8.00
2019-03-23T02:06:14.363Z,8.00
2019-03-23T02:08:43.090Z,8.00
2019-03-23T02:11:11.987Z,8.00
2019-03-23T02:13:40.992Z,8.00
2019-03-23T02:16:09.794Z,8.00
2019-03-23T02:18:38.534Z,8.00
2019-03-23T02:21:07.435Z,8.00
2019-03-23T02:23:36.191Z,8.00
2019-03-23T02:26:04.965Z,8.00
2019-03-23T02:28:33.686Z,8.00
2019-03-23T02:31:02.479Z,8.00
2019-03-23T02:33:31.233Z,8.00
2019-03-23T02:35:59.969Z,8.00
2019-03-23T02:38:28.719Z,8.10
2019-03-23T02:40:57.496Z,8.10
2019-03-23T02:43:26.257Z,8.10
2019-03-23T02:45:54.969Z,8.10
2019-03-23T02:48:23.853Z,8.10
2019-03-23T02:50:52.570Z,8.10
2019-03-23T02:53:21.399Z,8.10
2019-03-23T02:55:50.112Z,8.10
2019-03-23T02:58:18.915Z,8.10
2019-03-23T03:00:47.700Z,8.20
2019-03-23T03:03:16.479Z,8.20
2019-03-23T03:05:45.273Z,8.20
2019-03-23T03:08:14.031Z,8.20
2019-03-23T03:10:42.827Z,8.30
2019-03-23T03:13:11.737Z,8.30
2019-03-23T03:15:40.569Z,8.30
2019-03-23T03:18:09.391Z,8.30
2019-03-23T03:20:38.540Z,8.40
2019-03-23T03:23:07.483Z,8.30
2019-03-23T03:25:36.196Z,8.40
2019-03-23T03:28:05.001Z,8.40
2019-03-23T03:30:33.796Z,8.40
2019-03-23T03:33:02.541Z,8.40
2019-03-23T03:35:31.419Z,8.50
2019-03-23T03:38:00.171Z,8.50
2019-03-23T03:40:28.963Z,8.50
2019-03-23T03:42:57.700Z,8.50
2019-03-23T03:45:29.500Z,8.50
2019-03-23T03:47:58.358Z,8.60
2019-03-23T03:50:27.121Z,8.60
2019-03-23T03:52:56.029Z,8.60
2019-03-23T03:55:24.785Z,8.60
2019-03-23T03:57:53.501Z,8.70
2019-03-23T04:00:22.256Z,8.70
2019-03-23T04:02:50.976Z,8.70
2019-03-23T04:05:19.713Z,8.70
2019-03-23T04:07:48.446Z,8.80
2019-03-23T04:10:17.275Z,8.80
2019-03-23T04:12:46.057Z,8.80
2019-03-23T04:15:14.950Z,8.80
2019-03-23T04:17:43.731Z,8.80
2019-03-23T04:20:12.930Z,8.80
2019-03-23T04:22:41.978Z,8.80
2019-03-23T04:25:10.881Z,8.80
2019-03-23T04:27:39.747Z,8.80
2019-03-23T04:30:11.412Z,8.90
2019-03-23T04:32:40.280Z,8.80
2019-03-23T04:35:09.257Z,8.90
2019-03-23T04:37:38.050Z,8.90
2019-03-23T04:40:11.277Z,8.90
2019-03-23T04:42:40.169Z,8.90
2019-03-23T04:45:10.068Z,8.80
2019-03-23T04:47:38.992Z,8.90
2019-03-23T04:50:09.335Z,8.80
2019-03-23T04:52:38.187Z,8.90
2019-03-23T04:55:11.362Z,8.90
2019-03-23T04:57:40.296Z,8.90
2019-03-23T05:00:15.029Z,8.90
2019-03-23T05:02:43.838Z,8.90
2019-03-23T05:05:12.696Z,8.90
2019-03-23T05:07:41.442Z,9.00
2019-03-23T05:10:11.513Z,9.00
2019-03-23T05:12:40.313Z,9.00
2019-03-23T05:15:09.266Z,9.10
2019-03-23T05:17:38.012Z,9.10
2019-03-23T05:20:08.377Z,9.10
2019-03-23T05:22:37.184Z,9.10
2019-03-23T05:25:06.253Z,9.10
2019-03-23T05:27:35.006Z,9.20
2019-03-23T05:30:06.464Z,9.20
2019-03-23T05:32:35.212Z,9.20
2019-03-23T05:35:05.891Z,9.20
2019-03-23T05:37:34.636Z,9.20
2019-03-23T05:40:05.688Z,9.20
2019-03-23T05:42:34.804Z,9.20
2019-03-23T05:45:05.396Z,9.20
2019-03-23T05:47:34.133Z,9.20
2019-03-23T05:50:04.631Z,9.20
2019-03-23T05:52:33.366Z,9.20
2019-03-23T05:55:02.423Z,9.20
2019-03-23T05:57:31.211Z,9.20
2019-03-23T05:59:59.948Z,9.20
2019-03-23T06:02:28.731Z,9.20
2019-03-23T06:04:57.473Z,9.20
2019-03-23T06:07:26.181Z,9.20
2019-03-23T06:09:54.943Z,9.30
2019-03-23T06:12:23.658Z,9.30
2019-03-23T06:14:52.409Z,9.30
2019-03-23T06:17:21.298Z,9.30
2019-03-23T06:19:50.116Z,9.30
2019-03-23T06:22:19.010Z,9.30
2019-03-23T06:24:47.756Z,9.30
2019-03-23T06:27:16.542Z,9.30
2019-03-23T06:29:45.277Z,9.30
2019-03-23T06:32:14.042Z,9.30
2019-03-23T06:34:42.855Z,9.40
2019-03-23T06:37:11.944Z,9.40
2019-03-23T06:39:40.782Z,9.40
2019-03-23T06:42:09.638Z,9.50
2019-03-23T06:44:38.362Z,9.50
2019-03-23T06:47:07.097Z,9.50
2019-03-23T06:49:35.845Z,9.50
2019-03-23T06:52:04.740Z,9.60
2019-03-23T06:54:33.523Z,9.60
2019-03-23T06:57:02.348Z,9.70
2019-03-23T06:59:31.058Z,9.80
2019-03-23T07:01:59.889Z,9.90
2019-03-23T07:04:28.623Z,9.90
2019-03-23T07:06:57.424Z,9.90
2019-03-23T07:09:26.203Z,10.00
2019-03-23T07:11:55.017Z,10.10
2019-03-23T07:14:23.733Z,10.10
2019-03-23T07:16:52.476Z,10.20
2019-03-23T07:19:21.261Z,10.20
2019-03-23T07:21:50.101Z,10.20
2019-03-23T07:24:18.902Z,10.20
2019-03-23T07:26:47.648Z,10.30
2019-03-23T07:29:16.384Z,10.30
2019-03-23T07:31:45.137Z,10.40
2019-03-23T07:34:13.856Z,10.40
2019-03-23T07:36:42.760Z,10.50
2019-03-23T07:39:11.543Z,10.50
2019-03-23T07:41:40.549Z,10.60
2019-03-23T07:44:09.261Z,10.60
2019-03-23T07:46:38.001Z,10.70
2019-03-23T07:49:06.740Z,10.80
2019-03-23T07:51:35.467Z,10.80
2019-03-23T07:54:04.308Z,10.80
2019-03-23T07:56:33.217Z,10.90
2019-03-23T07:59:01.979Z,10.90
2019-03-23T08:01:30.766Z,10.90
2019-03-23T08:03:59.588Z,10.90
2019-03-23T08:06:28.304Z,11.00
2019-03-23T08:08:57.686Z,11.00
2019-03-23T08:11:26.428Z,11.10
2019-03-23T08:13:55.259Z,11.10
2019-03-23T08:16:23.983Z,11.10
2019-03-23T08:18:52.733Z,11.10
2019-03-23T08:21:21.453Z,11.10
2019-03-23T08:23:50.205Z,11.20
2019-03-23T08:26:18.944Z,11.20
2019-03-23T08:28:47.757Z,11.30
2019-03-23T08:31:16.542Z,11.30
2019-03-23T08:33:45.286Z,11.30
2019-03-23T08:36:14.094Z,11.20
2019-03-23T08:38:42.903Z,11.20
2019-03-23T08:41:11.695Z,11.30
2019-03-23T08:43:40.529Z,11.30
2019-03-23T08:46:09.243Z,11.30
2019-03-23T08:48:37.975Z,11.30
2019-03-23T08:51:06.722Z,11.30
2019-03-23T08:53:35.442Z,11.30
2019-03-23T08:56:04.344Z,11.40
2019-03-23T08:58:31.999Z,11.40
2019-03-23T09:01:01.010Z,11.40
2019-03-23T09:03:29.810Z,11.40
2019-03-23T09:05:58.683Z,11.40
2019-03-23T09:08:27.419Z,11.50
2019-03-23T09:10:56.163Z,11.50
2019-03-23T09:13:24.879Z,11.40
2019-03-23T09:15:53.713Z,11.40
2019-03-23T09:18:22.588Z,11.40
2019-03-23T09:20:51.406Z,11.40
2019-03-23T09:23:20.120Z,11.40
2019-03-23T09:25:48.892Z,11.40
2019-03-23T09:28:17.674Z,11.50
2019-03-23T09:30:46.481Z,11.70
2019-03-23T09:33:15.217Z,11.80
2019-03-23T09:35:43.953Z,12.10
2019-03-23T09:38:12.715Z,12.40
2019-03-23T09:40:41.441Z,12.60
2019-03-23T09:43:10.258Z,12.90
2019-03-23T09:45:39.121Z,13.10
2019-03-23T09:48:07.928Z,13.30
2019-03-23T09:50:36.697Z,13.50
2019-03-23T09:53:05.496Z,13.80
2019-03-23T09:55:34.523Z,13.80
2019-03-23T09:58:03.427Z,14.00
2019-03-23T10:00:32.203Z,14.10
2019-03-23T10:03:00.952Z,14.10
2019-03-23T10:05:29.820Z,14.20
2019-03-23T10:07:58.611Z,14.30
2019-03-23T10:10:27.356Z,14.30
2019-03-23T10:12:56.091Z,14.40
2019-03-23T10:15:24.801Z,14.30
2019-03-23T10:17:53.545Z,14.30
2019-03-23T10:20:22.281Z,14.30
2019-03-23T10:22:51.025Z,14.30
2019-03-23T10:25:19.820Z,14.30
2019-03-23T10:27:48.660Z,14.30
2019-03-23T10:30:17.509Z,14.40
2019-03-23T10:32:46.257Z,14.50
2019-03-23T10:35:15.051Z,14.70
2019-03-23T10:37:43.909Z,14.80
2019-03-23T10:40:12.754Z,14.80
2019-03-23T10:42:43.279Z,14.90
2019-03-23T10:45:12.448Z,14.90
2019-03-23T10:47:41.400Z,15.00
2019-03-23T10:50:10.364Z,15.20
2019-03-23T10:52:39.086Z,15.40
2019-03-23T10:55:08.160Z,15.60
2019-03-23T10:57:36.959Z,15.80
2019-03-23T11:00:08.901Z,15.90
2019-03-23T11:02:37.708Z,16.00
2019-03-23T11:05:07.188Z,15.60
2019-03-23T11:07:36.001Z,15.50
2019-03-23T11:10:09.707Z,15.40
2019-03-23T11:12:38.583Z,15.50
2019-03-23T11:15:08.438Z,15.60
2019-03-23T11:17:37.284Z,15.60
2019-03-23T11:20:08.768Z,15.70
2019-03-23T11:22:37.562Z,15.50
2019-03-23T11:25:07.910Z,15.40
2019-03-23T11:27:36.726Z,15.30
2019-03-23T11:30:07.314Z,15.30
2019-03-23T11:32:36.056Z,15.30
2019-03-23T11:35:08.099Z,15.30
2019-03-23T11:37:37.213Z,15.20
2019-03-23T11:40:08.729Z,15.30
2019-03-23T11:42:37.687Z,15.30
2019-03-23T11:45:07.202Z,15.10
2019-03-23T11:47:36.091Z,15.00
2019-03-23T11:50:06.262Z,14.80
2019-03-23T11:52:35.152Z,14.90
2019-03-23T11:55:06.603Z,14.80
2019-03-23T11:57:35.352Z,14.90
2019-03-23T12:00:10.281Z,15.10
2019-03-23T12:02:39.165Z,15.10
2019-03-23T12:05:08.246Z,15.10
2019-03-23T12:07:37.079Z,15.10
2019-03-23T12:10:08.717Z,15.10
2019-03-23T12:12:37.536Z,15.00
2019-03-23T12:15:07.695Z,15.10
2019-03-23T12:17:36.566Z,15.00
2019-03-23T12:20:06.626Z,15.00
2019-03-23T12:22:35.403Z,15.10
2019-03-23T12:25:04.981Z,15.10
2019-03-23T12:27:33.824Z,15.20
2019-03-23T12:30:07.612Z,15.20
2019-03-23T12:32:34.122Z,15.10
2019-03-23T12:35:04.104Z,15.10
2019-03-23T12:37:32.843Z,15.10
2019-03-23T12:40:01.620Z,15.10
2019-03-23T12:42:30.497Z,15.10
2019-03-23T12:44:59.304Z,15.00
2019-03-23T12:47:28.017Z,15.00
2019-03-23T12:49:56.798Z,15.00
2019-03-23T12:52:25.530Z,15.10
2019-03-23T12:54:54.359Z,15.20
2019-03-23T12:57:23.175Z,15.40
2019-03-23T12:59:51.947Z,15.50
2019-03-23T13:02:20.788Z,15.60
2019-03-23T13:04:49.530Z,15.70
2019-03-23T13:07:18.321Z,15.70
2019-03-23T13:09:47.071Z,15.80
2019-03-23T13:12:15.778Z,15.80
2019-03-23T13:14:44.791Z,15.80
2019-03-23T13:17:13.518Z,15.70
2019-03-23T13:19:42.261Z,15.80
2019-03-23T13:22:11.076Z,15.80
2019-03-23T13:24:39.833Z,15.80
2019-03-23T13:27:08.659Z,15.80
2019-03-23T13:29:37.391Z,15.70
2019-03-23T13:32:06.140Z,15.70
2019-03-23T13:34:34.869Z,15.60
2019-03-23T13:37:03.785Z,15.50
2019-03-23T13:39:32.495Z,15.40
2019-03-23T13:42:01.334Z,15.40
2019-03-23T13:44:30.268Z,15.40
2019-03-23T13:46:59.108Z,15.40
2019-03-23T13:49:27.833Z,15.50
2019-03-23T13:51:57.686Z,15.40
2019-03-23T13:54:26.489Z,15.40
2019-03-23T13:56:55.343Z,15.30
2019-03-23T13:59:24.058Z,15.40
2019-03-23T14:01:52.826Z,15.30
2019-03-23T14:04:21.612Z,15.20
2019-03-23T14:06:50.378Z,15.20
2019-03-23T14:09:19.094Z,15.20
2019-03-23T14:11:54.830Z,15.10
2019-03-23T14:14:18.337Z,15.00
2019-03-23T14:16:47.150Z,14.90
2019-03-23T14:19:15.878Z,14.90
2019-03-23T14:21:44.636Z,14.90
2019-03-23T14:24:13.366Z,14.90
2019-03-23T14:26:42.185Z,14.80
2019-03-23T14:29:11.046Z,14.80
2019-03-23T14:31:39.891Z,14.70
2019-03-23T14:34:08.609Z,14.60
2019-03-23T14:36:37.351Z,14.60
2019-03-23T14:39:07.780Z,14.40
2019-03-23T14:41:36.607Z,14.30
2019-03-23T14:44:05.376Z,14.30
2019-03-23T14:46:34.251Z,14.30
2019-03-23T14:49:03.147Z,14.20
2019-03-23T14:51:32.008Z,14.20
2019-03-23T14:54:00.822Z,14.10
2019-03-23T14:56:31.513Z,14.10
2019-03-23T14:59:00.074Z,14.00
2019-03-23T15:01:28.797Z,13.90
2019-03-23T15:03:57.546Z,13.90
2019-03-23T15:06:26.330Z,13.90
2019-03-23T15:08:55.164Z,13.90
2019-03-23T15:11:23.888Z,13.90
2019-03-23T15:13:52.654Z,13.90
2019-03-23T15:16:21.377Z,13.90
2019-03-23T15:18:50.265Z,13.80
2019-03-23T15:21:19.082Z,13.80
2019-03-23T15:23:47.928Z,13.90
2019-03-23T15:26:16.731Z,13.90
2019-03-23T15:28:45.460Z,13.90
2019-03-23T15:31:14.385Z,13.90
2019-03-23T15:33:43.115Z,14.00
2019-03-23T15:36:11.897Z,14.00
2019-03-23T15:38:40.673Z,14.00
2019-03-23T15:41:09.636Z,14.00
2019-03-23T15:43:38.350Z,13.90
2019-03-23T15:46:07.093Z,13.80
2019-03-23T15:48:38.930Z,13.80
2019-03-23T15:51:07.808Z,13.70
2019-03-23T15:53:36.654Z,13.70
2019-03-23T15:56:05.483Z,13.60
2019-03-23T15:58:34.194Z,13.60
2019-03-23T16:01:03.085Z,13.60
2019-03-23T16:03:31.903Z,13.60
2019-03-23T16:06:00.735Z,13.50
2019-03-23T16:08:29.455Z,13.40
2019-03-23T16:10:58.258Z,13.40
2019-03-23T16:13:27.051Z,13.30
2019-03-23T16:15:56.606Z,13.30
2019-03-23T16:18:25.421Z,13.20
2019-03-23T16:20:54.197Z,13.20
2019-03-23T16:23:23.061Z,13.10
2019-03-23T16:25:51.981Z,13.10
2019-03-23T16:28:20.710Z,13.10
2019-03-23T16:30:49.575Z,13.10
2019-03-23T16:33:18.507Z,13.00
2019-03-23T16:35:47.219Z,13.00
2019-03-23T16:38:15.974Z,13.00
2019-03-23T16:40:44.782Z,13.00
2019-03-23T16:43:13.610Z,13.00
2019-03-23T16:45:42.400Z,13.00
2019-03-23T16:48:11.285Z,12.90
2019-03-23T16:50:40.086Z,13.00
2019-03-23T16:53:08.977Z,12.90
2019-03-23T16:55:37.792Z,12.90
2019-03-23T16:58:15.723Z,12.90
2019-03-23T17:00:37.608Z,12.90
2019-03-23T17:03:06.701Z,12.90
2019-03-23T17:05:36.457Z,12.90
2019-03-23T17:08:05.757Z,12.90
2019-03-23T17:10:34.618Z,12.90
2019-03-23T17:13:03.495Z,12.90
2019-03-23T17:15:33.111Z,12.90
2019-03-23T17:18:01.913Z,12.90
2019-03-23T17:20:30.871Z,12.80
2019-03-23T17:22:59.817Z,12.70
2019-03-23T17:25:28.541Z,12.70
2019-03-23T17:27:57.305Z,12.60
2019-03-23T17:30:26.137Z,12.60
2019-03-23T17:32:56.319Z,12.60
2019-03-23T17:35:25.165Z,12.50
2019-03-23T17:37:53.869Z,12.50
2019-03-23T17:40:22.728Z,12.50
2019-03-23T17:42:51.653Z,12.40
2019-03-23T17:45:20.531Z,12.40
2019-03-23T17:47:49.340Z,12.30
2019-03-23T17:50:18.156Z,12.30
2019-03-23T17:52:47.144Z,12.30
2019-03-23T17:55:16.079Z,12.20
2019-03-23T17:57:44.936Z,12.20
2019-03-23T18:00:14.151Z,12.20
2019-03-23T18:02:42.939Z,12.10
2019-03-23T18:05:12.305Z,12.10
2019-03-23T18:07:41.251Z,12.10
2019-03-23T18:10:10.644Z,12.00
2019-03-23T18:12:39.513Z,12.00
2019-03-23T18:15:09.307Z,11.90
2019-03-23T18:17:38.922Z,11.90
2019-03-23T18:20:07.998Z,11.80
2019-03-23T18:22:36.829Z,11.80
2019-03-23T18:25:07.112Z,11.70
2019-03-23T18:27:35.977Z,11.60
2019-03-23T18:30:07.825Z,11.60
2019-03-23T18:32:36.621Z,11.60
2019-03-23T18:35:06.306Z,11.50
2019-03-23T18:37:35.139Z,11.50
2019-03-23T18:40:05.501Z,11.60
2019-03-23T18:42:34.549Z,11.50
2019-03-23T18:45:05.227Z,11.50
2019-03-23T18:47:34.076Z,11.40
2019-03-23T18:50:04.992Z,11.30
2019-03-23T18:52:33.971Z,11.30
2019-03-23T18:55:04.733Z,11.20
2019-03-23T18:57:33.716Z,11.20
2019-03-23T19:00:04.639Z,11.10
2019-03-23T19:02:34.241Z,11.00
2019-03-23T19:05:03.495Z,11.00
2019-03-23T19:07:32.558Z,10.80
2019-03-23T19:10:01.601Z,10.80
2019-03-23T19:12:30.429Z,10.70
2019-03-23T19:14:59.243Z,10.60
2019-03-23T19:17:28.199Z,10.50
2019-03-23T19:19:57.225Z,10.50
2019-03-23T19:22:26.202Z,10.40
2019-03-23T19:24:55.091Z,10.40
2019-03-23T19:27:24.096Z,10.40
2019-03-23T19:29:52.996Z,10.50
2019-03-23T19:32:21.958Z,10.50
2019-03-23T19:34:50.865Z,10.50
2019-03-23T19:37:19.732Z,10.60
2019-03-23T19:39:48.681Z,10.60
2019-03-23T19:42:17.548Z,10.70
2019-03-23T19:44:46.400Z,10.80
2019-03-23T19:47:15.232Z,10.80
2019-03-23T19:49:44.261Z,10.80
2019-03-23T19:52:13.234Z,10.90
2019-03-23T19:54:42.195Z,10.90
2019-03-23T19:57:11.008Z,10.90
2019-03-23T19:59:39.995Z,10.80
2019-03-23T20:02:08.929Z,10.80
2019-03-23T20:04:37.847Z,10.80
2019-03-23T20:07:06.771Z,10.80
2019-03-23T20:09:35.739Z,10.80
2019-03-23T20:12:04.702Z,10.80
2019-03-23T20:14:35.187Z,10.80
2019-03-23T20:17:04.186Z,10.70
2019-03-23T20:19:33.024Z,10.80
2019-03-23T20:22:01.844Z,10.70
2019-03-23T20:24:30.869Z,10.70
2019-03-23T20:26:59.896Z,10.70
2019-03-23T20:29:37.694Z,10.70
2019-03-23T20:32:07.859Z,10.70
2019-03-23T20:34:36.716Z,10.70
2019-03-23T20:37:08.472Z,10.70
2019-03-23T20:39:46.474Z,10.70
2019-03-23T20:42:16.878Z,10.70
2019-03-23T20:44:49.316Z,10.70
2019-03-23T20:47:18.181Z,10.70
2019-03-23T20:49:46.994Z,10.70
2019-03-23T20:52:16.384Z,10.70
2019-03-23T20:54:45.453Z,10.70
2019-03-23T20:57:23.478Z,10.70
2019-03-23T20:59:44.959Z,10.70
2019-03-23T21:02:13.889Z,10.70
2019-03-23T21:04:42.746Z,10.70
2019-03-23T21:07:11.722Z,10.70
2019-03-23T21:09:40.703Z,10.70
2019-03-23T21:12:09.583Z,10.70
2019-03-23T21:14:38.498Z,10.70
2019-03-23T21:17:07.594Z,10.70
2019-03-23T21:19:36.415Z,10.70
2019-03-23T21:22:05.402Z,10.70
2019-03-23T21:24:34.219Z,10.60
2019-03-23T21:27:03.713Z,10.60
2019-03-23T21:29:32.549Z,10.60
2019-03-23T21:32:01.435Z,10.60
2019-03-23T21:34:30.829Z,10.60
2019-03-23T21:37:00.584Z,10.50
2019-03-23T21:39:29.336Z,10.50
2019-03-23T21:41:59.630Z,10.50
2019-03-23T21:44:31.275Z,10.50
2019-03-23T21:47:02.547Z,10.40
2019-03-23T21:49:30.839Z,10.40
2019-03-23T21:51:59.612Z,10.40
2019-03-23T21:54:28.508Z,10.40
2019-03-23T21:56:57.387Z,10.40
2019-03-23T21:59:26.146Z,10.40
2019-03-23T22:01:55.015Z,10.30
2019-03-23T22:04:23.780Z,10.30
2019-03-23T22:06:52.668Z,10.20
2019-03-23T22:09:21.497Z,10.30
2019-03-23T22:11:50.296Z,10.30
2019-03-23T22:14:19.061Z,10.30
2019-03-23T22:16:47.864Z,10.30
2019-03-23T22:19:16.787Z,10.20
2019-03-23T22:21:45.645Z,10.20
2019-03-23T22:24:14.441Z,10.20
2019-03-23T22:26:43.251Z,10.20
2019-03-23T22:29:12.131Z,10.20
2019-03-23T22:31:40.857Z,10.30
2019-03-23T22:34:09.686Z,10.20
2019-03-23T22:36:38.410Z,10.20
2019-03-23T22:39:07.397Z,10.20
2019-03-23T22:41:36.190Z,10.20
2019-03-23T22:44:05.133Z,10.20
2019-03-23T22:46:34.090Z,10.20
2019-03-23T22:49:02.986Z,10.20
2019-03-23T22:51:31.717Z,10.10
2019-03-23T22:54:01.002Z,10.20
2019-03-23T22:56:29.811Z,10.10
2019-03-23T22:58:58.606Z,10.10
2019-03-23T23:01:27.501Z,10.10
2019-03-23T23:03:56.228Z,10.10
2019-03-23T23:06:25.131Z,10.10
2019-03-23T23:08:53.922Z,10.10
2019-03-23T23:11:22.737Z,10.10
2019-03-23T23:13:51.536Z,10.00
2019-03-23T23:16:20.424Z,10.00
2019-03-23T23:18:49.160Z,10.00
2019-03-23T23:21:17.991Z,10.00
2019-03-23T23:23:46.702Z,10.00
2019-03-23T23:26:15.437Z,10.00
2019-03-23T23:28:44.251Z,10.00
2019-03-23T23:31:13.079Z,10.00
2019-03-23T23:33:41.951Z,10.00
2019-03-23T23:36:10.699Z,10.00
2019-03-23T23:38:39.500Z,9.90
